sensor_id;sensor_type;location;lat;lon;timestamp;temperature;humidity
19972;DHT22;10147;16.402;102.848;2022-11-20T00:01:46;25.20;99.90
19972;DHT22;10147;16.402;102.848;2022-11-20T00:04:17;25.40;99.90
19972;DHT22;10147;16.402;102.848;2022-11-20T00:06:48;25.50;99.90
19972;DHT22;10147;16.402;102.848;2022-11-20T00:09:19;25.60;99.90
19972;DHT22;10147;16.402;102.848;2022-11-20T00:11:50;25.40;99.90
19972;DHT22;10147;16.402;102.848;2022-11-20T00:14:20;25.60;99.90
19972;DHT22;10147;16.402;102.848;2022-11-20T00:16:50;25.70;99.90
19972;DHT22;10147;16.402;102.848;2022-11-20T00:19:21;25.80;99.90
19972;DHT22;10147;16.402;102.848;2022-11-20T00:21:51;25.90;99.90
19972;DHT22;10147;16.402;102.848;2022-11-20T00:24:23;26.00;99.90
19972;DHT22;10147;16.402;102.848;2022-11-20T00:26:53;26.00;99.90
19972;DHT22;10147;16.402;102.848;2022-11-20T00:29:24;25.70;99.90
19972;DHT22;10147;16.402;102.848;2022-11-20T00:31:54;25.70;99.90
19972;DHT22;10147;16.402;102.848;2022-11-20T00:34:24;25.90;99.90
19972;DHT22;10147;16.402;102.848;2022-11-20T00:36:55;25.90;99.90
19972;DHT22;10147;16.402;102.848;2022-11-20T00:39:25;25.80;99.90
19972;DHT22;10147;16.402;102.848;2022-11-20T00:41:55;26.00;99.90
19972;DHT22;10147;16.402;102.848;2022-11-20T00:44:26;26.20;99.90
19972;DHT22;10147;16.402;102.848;2022-11-20T00:46:56;26.10;99.90
19972;DHT22;10147;16.402;102.848;2022-11-20T00:49:26;26.10;99.90
19972;DHT22;10147;16.402;102.848;2022-11-20T00:51:57;26.10;99.90
19972;DHT22;10147;16.402;102.848;2022-11-20T00:54:28;26.20;99.90
19972;DHT22;10147;16.402;102.848;2022-11-20T00:56:58;26.20;99.90
19972;DHT22;10147;16.402;102.848;2022-11-20T00:59:28;26.30;99.90
19972;DHT22;10147;16.402;102.848;2022-11-20T01:01:59;26.50;99.90
19972;DHT22;10147;16.402;102.848;2022-11-20T01:04:29;26.40;99.90
19972;DHT22;10147;16.402;102.848;2022-11-20T01:06:59;26.50;99.90
19972;DHT22;10147;16.402;102.848;2022-11-20T01:09:29;26.50;99.90
19972;DHT22;10147;16.402;102.848;2022-11-20T01:12:00;26.60;99.90
19972;DHT22;10147;16.402;102.848;2022-11-20T01:14:30;26.60;99.90
19972;DHT22;10147;16.402;102.848;2022-11-20T01:17:01;26.60;99.90
19972;DHT22;10147;16.402;102.848;2022-11-20T01:19:31;26.60;99.90
19972;DHT22;10147;16.402;102.848;2022-11-20T01:22:03;26.50;99.90
19972;DHT22;10147;16.402;102.848;2022-11-20T01:24:33;26.60;99.90
19972;DHT22;10147;16.402;102.848;2022-11-20T01:27:03;26.60;99.90
19972;DHT22;10147;16.402;102.848;2022-11-20T01:29:34;26.60;99.90
19972;DHT22;10147;16.402;102.848;2022-11-20T01:32:05;26.70;99.90
19972;DHT22;10147;16.402;102.848;2022-11-20T01:34:35;26.80;99.90
19972;DHT22;10147;16.402;102.848;2022-11-20T01:37:05;26.90;99.90
19972;DHT22;10147;16.402;102.848;2022-11-20T01:39:36;27.00;99.90
19972;DHT22;10147;16.402;102.848;2022-11-20T01:42:07;27.10;99.90
19972;DHT22;10147;16.402;102.848;2022-11-20T01:44:59;27.30;99.90
19972;DHT22;10147;16.402;102.848;2022-11-20T01:47:39;27.50;99.90
19972;DHT22;10147;16.402;102.848;2022-11-20T01:50:23;27.40;99.90
19972;DHT22;10147;16.402;102.848;2022-11-20T01:52:59;27.30;99.90
19972;DHT22;10147;16.402;102.848;2022-11-20T01:55:35;27.30;99.90
19972;DHT22;10147;16.402;102.848;2022-11-20T01:58:07;27.40;99.90
19972;DHT22;10147;16.402;102.848;2022-11-20T02:00:37;27.50;99.90
19972;DHT22;10147;16.402;102.848;2022-11-20T02:03:13;27.70;99.90
19972;DHT22;10147;16.402;102.848;2022-11-20T02:08:39;27.80;99.90
19972;DHT22;10147;16.402;102.848;2022-11-20T02:11:10;28.10;99.90
19972;DHT22;10147;16.402;102.848;2022-11-20T02:13:42;28.00;99.90
19972;DHT22;10147;16.402;102.848;2022-11-20T02:16:33;28.10;99.90
19972;DHT22;10147;16.402;102.848;2022-11-20T02:19:11;28.20;99.90
19972;DHT22;10147;16.402;102.848;2022-11-20T02:22:00;28.10;99.90
19972;DHT22;10147;16.402;102.848;2022-11-20T02:24:33;28.10;99.90
19972;DHT22;10147;16.402;102.848;2022-11-20T02:27:10;27.90;99.90
19972;DHT22;10147;16.402;102.848;2022-11-20T02:29:54;27.90;99.90
19972;DHT22;10147;16.402;102.848;2022-11-20T02:32:32;28.00;99.90
19972;DHT22;10147;16.402;102.848;2022-11-20T02:38:13;28.20;99.90
19972;DHT22;10147;16.402;102.848;2022-11-20T02:40:44;28.30;99.90
19972;DHT22;10147;16.402;102.848;2022-11-20T02:43:23;28.50;99.90
19972;DHT22;10147;16.402;102.848;2022-11-20T02:45:53;28.50;99.90
19972;DHT22;10147;16.402;102.848;2022-11-20T02:48:24;28.30;99.90
19972;DHT22;10147;16.402;102.848;2022-11-20T02:51:00;28.20;99.90
19972;DHT22;10147;16.402;102.848;2022-11-20T02:53:30;28.10;99.90
19972;DHT22;10147;16.402;102.848;2022-11-20T02:56:00;28.40;99.90
19972;DHT22;10147;16.402;102.848;2022-11-20T02:58:31;28.30;99.90
19972;DHT22;10147;16.402;102.848;2022-11-20T03:01:02;28.10;99.90
19972;DHT22;10147;16.402;102.848;2022-11-20T03:03:32;28.10;99.90
19972;DHT22;10147;16.402;102.848;2022-11-20T03:06:02;28.30;99.90
19972;DHT22;10147;16.402;102.848;2022-11-20T03:08:33;28.40;99.90
19972;DHT22;10147;16.402;102.848;2022-11-20T03:11:06;28.60;99.90
19972;DHT22;10147;16.402;102.848;2022-11-20T03:13:37;28.80;99.90
19972;DHT22;10147;16.402;102.848;2022-11-20T03:16:11;29.10;99.90
19972;DHT22;10147;16.402;102.848;2022-11-20T03:18:43;29.20;99.90
19972;DHT22;10147;16.402;102.848;2022-11-20T03:21:14;28.80;99.90
19972;DHT22;10147;16.402;102.848;2022-11-20T03:23:46;28.70;99.90
19972;DHT22;10147;16.402;102.848;2022-11-20T03:26:20;28.80;99.90
19972;DHT22;10147;16.402;102.848;2022-11-20T03:28:58;28.70;99.90
19972;DHT22;10147;16.402;102.848;2022-11-20T03:31:32;29.00;99.90
19972;DHT22;10147;16.402;102.848;2022-11-20T03:34:03;28.80;99.90
19972;DHT22;10147;16.402;102.848;2022-11-20T03:36:35;28.80;99.90
19972;DHT22;10147;16.402;102.848;2022-11-20T03:39:07;28.80;99.90
19972;DHT22;10147;16.402;102.848;2022-11-20T03:41:40;28.90;99.90
19972;DHT22;10147;16.402;102.848;2022-11-20T03:44:11;29.20;99.90
19972;DHT22;10147;16.402;102.848;2022-11-20T03:46:42;29.60;99.90
19972;DHT22;10147;16.402;102.848;2022-11-20T03:49:12;29.80;99.90
19972;DHT22;10147;16.402;102.848;2022-11-20T03:51:43;29.90;99.90
19972;DHT22;10147;16.402;102.848;2022-11-20T03:54:13;30.00;99.90
19972;DHT22;10147;16.402;102.848;2022-11-20T03:56:44;30.00;99.90
19972;DHT22;10147;16.402;102.848;2022-11-20T03:59:15;29.90;99.90
19972;DHT22;10147;16.402;102.848;2022-11-20T04:01:45;30.00;99.90
19972;DHT22;10147;16.402;102.848;2022-11-20T04:04:16;29.90;99.90
19972;DHT22;10147;16.402;102.848;2022-11-20T04:06:47;29.90;99.90
19972;DHT22;10147;16.402;102.848;2022-11-20T04:09:18;29.90;99.90
19972;DHT22;10147;16.402;102.848;2022-11-20T04:11:49;30.10;99.90
19972;DHT22;10147;16.402;102.848;2022-11-20T04:14:19;30.30;99.90
19972;DHT22;10147;16.402;102.848;2022-11-20T04:16:50;30.30;99.90
19972;DHT22;10147;16.402;102.848;2022-11-20T04:19:21;30.40;99.90
19972;DHT22;10147;16.402;102.848;2022-11-20T04:21:51;30.40;99.90
19972;DHT22;10147;16.402;102.848;2022-11-20T04:24:21;30.30;99.90
19972;DHT22;10147;16.402;102.848;2022-11-20T04:26:51;30.40;99.90
19972;DHT22;10147;16.402;102.848;2022-11-20T04:29:23;30.50;99.90
19972;DHT22;10147;16.402;102.848;2022-11-20T04:31:53;30.50;99.90
19972;DHT22;10147;16.402;102.848;2022-11-20T04:34:23;30.70;99.90
19972;DHT22;10147;16.402;102.848;2022-11-20T04:36:55;30.90;99.90
19972;DHT22;10147;16.402;102.848;2022-11-20T04:39:25;30.70;99.90
19972;DHT22;10147;16.402;102.848;2022-11-20T04:41:56;30.30;99.90
19972;DHT22;10147;16.402;102.848;2022-11-20T04:44:46;30.10;99.90
19972;DHT22;10147;16.402;102.848;2022-11-20T04:47:16;30.10;99.90
19972;DHT22;10147;16.402;102.848;2022-11-20T04:49:46;30.10;99.90
19972;DHT22;10147;16.402;102.848;2022-11-20T04:52:17;30.00;99.90
19972;DHT22;10147;16.402;102.848;2022-11-20T04:54:48;30.10;99.90
19972;DHT22;10147;16.402;102.848;2022-11-20T04:57:19;30.00;99.90
19972;DHT22;10147;16.402;102.848;2022-11-20T04:59:49;30.00;99.90
19972;DHT22;10147;16.402;102.848;2022-11-20T05:02:21;30.10;99.90
19972;DHT22;10147;16.402;102.848;2022-11-20T05:04:51;30.20;99.90
19972;DHT22;10147;16.402;102.848;2022-11-20T05:07:22;30.20;99.90
19972;DHT22;10147;16.402;102.848;2022-11-20T05:09:52;30.30;99.90
19972;DHT22;10147;16.402;102.848;2022-11-20T05:12:22;30.20;99.90
19972;DHT22;10147;16.402;102.848;2022-11-20T05:14:53;30.30;99.90
19972;DHT22;10147;16.402;102.848;2022-11-20T05:17:24;30.40;99.90
19972;DHT22;10147;16.402;102.848;2022-11-20T05:19:54;30.50;99.90
19972;DHT22;10147;16.402;102.848;2022-11-20T05:22:25;30.50;99.90
19972;DHT22;10147;16.402;102.848;2022-11-20T05:24:55;30.70;99.90
19972;DHT22;10147;16.402;102.848;2022-11-20T05:27:26;30.70;99.90
19972;DHT22;10147;16.402;102.848;2022-11-20T05:29:56;30.90;99.90
19972;DHT22;10147;16.402;102.848;2022-11-20T05:32:27;31.00;99.90
19972;DHT22;10147;16.402;102.848;2022-11-20T05:34:57;30.90;99.90
19972;DHT22;10147;16.402;102.848;2022-11-20T05:37:28;31.00;99.90
19972;DHT22;10147;16.402;102.848;2022-11-20T05:39:59;31.10;99.90
19972;DHT22;10147;16.402;102.848;2022-11-20T05:42:32;31.10;99.90
19972;DHT22;10147;16.402;102.848;2022-11-20T05:45:04;31.40;99.90
19972;DHT22;10147;16.402;102.848;2022-11-20T05:47:35;31.30;99.90
19972;DHT22;10147;16.402;102.848;2022-11-20T05:50:05;31.10;99.90
19972;DHT22;10147;16.402;102.848;2022-11-20T05:52:36;31.10;99.90
19972;DHT22;10147;16.402;102.848;2022-11-20T05:55:07;31.10;99.90
19972;DHT22;10147;16.402;102.848;2022-11-20T05:57:38;31.30;99.90
19972;DHT22;10147;16.402;102.848;2022-11-20T06:00:09;31.40;99.90
19972;DHT22;10147;16.402;102.848;2022-11-20T06:02:40;31.30;99.90
19972;DHT22;10147;16.402;102.848;2022-11-20T06:05:11;31.30;99.90
19972;DHT22;10147;16.402;102.848;2022-11-20T06:07:42;31.40;99.90
19972;DHT22;10147;16.402;102.848;2022-11-20T06:10:12;31.20;99.90
19972;DHT22;10147;16.402;102.848;2022-11-20T06:12:42;31.00;99.90
19972;DHT22;10147;16.402;102.848;2022-11-20T06:15:12;31.10;99.90
19972;DHT22;10147;16.402;102.848;2022-11-20T06:17:44;31.30;99.90
19972;DHT22;10147;16.402;102.848;2022-11-20T06:20:14;31.40;99.90
19972;DHT22;10147;16.402;102.848;2022-11-20T06:22:44;31.30;99.90
19972;DHT22;10147;16.402;102.848;2022-11-20T06:25:15;31.30;99.90
19972;DHT22;10147;16.402;102.848;2022-11-20T06:27:46;31.40;99.90
19972;DHT22;10147;16.402;102.848;2022-11-20T06:30:17;31.50;99.90
19972;DHT22;10147;16.402;102.848;2022-11-20T06:32:48;31.70;99.90
19972;DHT22;10147;16.402;102.848;2022-11-20T06:35:18;31.60;99.90
19972;DHT22;10147;16.402;102.848;2022-11-20T06:37:49;31.60;99.90
19972;DHT22;10147;16.402;102.848;2022-11-20T06:40:19;31.70;99.90
19972;DHT22;10147;16.402;102.848;2022-11-20T06:42:50;31.70;99.90
19972;DHT22;10147;16.402;102.848;2022-11-20T06:45:21;32.00;99.90
19972;DHT22;10147;16.402;102.848;2022-11-20T06:47:51;32.00;99.90
19972;DHT22;10147;16.402;102.848;2022-11-20T06:50:22;32.10;99.90
19972;DHT22;10147;16.402;102.848;2022-11-20T06:52:52;32.40;99.90
19972;DHT22;10147;16.402;102.848;2022-11-20T06:55:23;32.80;99.90
19972;DHT22;10147;16.402;102.848;2022-11-20T06:57:53;32.90;99.90
19972;DHT22;10147;16.402;102.848;2022-11-20T07:00:25;32.70;99.90
19972;DHT22;10147;16.402;102.848;2022-11-20T07:02:55;32.70;99.90
19972;DHT22;10147;16.402;102.848;2022-11-20T07:05:25;32.80;99.90
19972;DHT22;10147;16.402;102.848;2022-11-20T07:07:59;32.70;99.90
19972;DHT22;10147;16.402;102.848;2022-11-20T07:10:29;32.50;99.90
19972;DHT22;10147;16.402;102.848;2022-11-20T07:13:00;32.40;99.90
19972;DHT22;10147;16.402;102.848;2022-11-20T07:15:30;32.50;99.90
19972;DHT22;10147;16.402;102.848;2022-11-20T07:18:01;32.70;99.90
19972;DHT22;10147;16.402;102.848;2022-11-20T07:20:31;32.80;99.90
19972;DHT22;10147;16.402;102.848;2022-11-20T07:23:02;32.60;99.90
19972;DHT22;10147;16.402;102.848;2022-11-20T07:25:33;32.60;99.90
19972;DHT22;10147;16.402;102.848;2022-11-20T07:28:04;32.80;99.90
19972;DHT22;10147;16.402;102.848;2022-11-20T07:30:35;32.80;99.90
19972;DHT22;10147;16.402;102.848;2022-11-20T07:33:05;32.70;99.90
19972;DHT22;10147;16.402;102.848;2022-11-20T07:35:36;32.50;99.90
19972;DHT22;10147;16.402;102.848;2022-11-20T07:38:06;32.50;99.90
19972;DHT22;10147;16.402;102.848;2022-11-20T07:40:37;32.60;99.90
19972;DHT22;10147;16.402;102.848;2022-11-20T07:43:07;32.70;99.90
19972;DHT22;10147;16.402;102.848;2022-11-20T07:45:38;32.70;99.90
19972;DHT22;10147;16.402;102.848;2022-11-20T07:48:09;32.80;99.90
19972;DHT22;10147;16.402;102.848;2022-11-20T07:50:39;32.80;99.90
19972;DHT22;10147;16.402;102.848;2022-11-20T07:53:10;32.90;99.90
19972;DHT22;10147;16.402;102.848;2022-11-20T07:55:42;32.70;99.90
19972;DHT22;10147;16.402;102.848;2022-11-20T07:58:12;32.70;99.90
19972;DHT22;10147;16.402;102.848;2022-11-20T08:00:44;32.60;99.90
19972;DHT22;10147;16.402;102.848;2022-11-20T08:03:14;32.80;99.90
19972;DHT22;10147;16.402;102.848;2022-11-20T08:05:52;32.80;99.90
19972;DHT22;10147;16.402;102.848;2022-11-20T08:08:22;32.80;99.90
19972;DHT22;10147;16.402;102.848;2022-11-20T08:10:56;32.50;99.90
19972;DHT22;10147;16.402;102.848;2022-11-20T08:13:46;32.40;99.90
19972;DHT22;10147;16.402;102.848;2022-11-20T08:16:36;32.60;99.90
19972;DHT22;10147;16.402;102.848;2022-11-20T08:19:07;32.60;99.90
19972;DHT22;10147;16.402;102.848;2022-11-20T08:21:38;32.40;99.90
19972;DHT22;10147;16.402;102.848;2022-11-20T08:24:09;32.50;99.90
19972;DHT22;10147;16.402;102.848;2022-11-20T08:26:40;32.50;99.90
19972;DHT22;10147;16.402;102.848;2022-11-20T08:29:11;32.60;99.90
19972;DHT22;10147;16.402;102.848;2022-11-20T08:31:42;32.50;99.90
19972;DHT22;10147;16.402;102.848;2022-11-20T08:34:13;32.50;99.90
19972;DHT22;10147;16.402;102.848;2022-11-20T08:36:46;32.30;99.90
19972;DHT22;10147;16.402;102.848;2022-11-20T08:39:17;32.30;99.90
19972;DHT22;10147;16.402;102.848;2022-11-20T08:41:48;32.30;99.90
19972;DHT22;10147;16.402;102.848;2022-11-20T08:44:19;32.40;99.90
19972;DHT22;10147;16.402;102.848;2022-11-20T08:46:50;32.40;99.90
19972;DHT22;10147;16.402;102.848;2022-11-20T08:49:21;32.30;99.90
19972;DHT22;10147;16.402;102.848;2022-11-20T08:51:52;32.30;99.90
19972;DHT22;10147;16.402;102.848;2022-11-20T08:54:24;32.10;99.90
19972;DHT22;10147;16.402;102.848;2022-11-20T08:56:55;32.10;99.90
19972;DHT22;10147;16.402;102.848;2022-11-20T08:59:26;32.00;99.90
19972;DHT22;10147;16.402;102.848;2022-11-20T09:02:17;32.00;99.90
19972;DHT22;10147;16.402;102.848;2022-11-20T09:04:48;32.00;99.90
19972;DHT22;10147;16.402;102.848;2022-11-20T09:07:19;32.00;99.90
19972;DHT22;10147;16.402;102.848;2022-11-20T09:09:49;31.90;99.90
19972;DHT22;10147;16.402;102.848;2022-11-20T09:12:40;31.80;99.90
19972;DHT22;10147;16.402;102.848;2022-11-20T09:15:11;31.70;99.90
19972;DHT22;10147;16.402;102.848;2022-11-20T09:17:42;31.70;99.90
19972;DHT22;10147;16.402;102.848;2022-11-20T09:20:14;31.60;99.90
19972;DHT22;10147;16.402;102.848;2022-11-20T09:22:46;31.50;99.90
19972;DHT22;10147;16.402;102.848;2022-11-20T09:25:16;31.50;99.90
19972;DHT22;10147;16.402;102.848;2022-11-20T09:27:47;31.50;99.90
19972;DHT22;10147;16.402;102.848;2022-11-20T09:30:17;31.40;99.90
19972;DHT22;10147;16.402;102.848;2022-11-20T09:32:48;31.50;99.90
19972;DHT22;10147;16.402;102.848;2022-11-20T09:35:19;31.50;99.90
19972;DHT22;10147;16.402;102.848;2022-11-20T09:37:50;31.30;99.90
19972;DHT22;10147;16.402;102.848;2022-11-20T09:40:24;31.20;99.90
19972;DHT22;10147;16.402;102.848;2022-11-20T09:46:17;31.20;99.90
19972;DHT22;10147;16.402;102.848;2022-11-20T09:49:23;31.10;99.90
19972;DHT22;10147;16.402;102.848;2022-11-20T09:55:09;31.00;99.90
19972;DHT22;10147;16.402;102.848;2022-11-20T09:57:44;31.00;99.90
19972;DHT22;10147;16.402;102.848;2022-11-20T10:00:16;30.90;99.90
19972;DHT22;10147;16.402;102.848;2022-11-20T10:03:04;30.90;99.90
19972;DHT22;10147;16.402;102.848;2022-11-20T10:05:48;31.00;99.90
19972;DHT22;10147;16.402;102.848;2022-11-20T10:08:42;30.80;99.90
19972;DHT22;10147;16.402;102.848;2022-11-20T10:11:46;30.70;99.90
19972;DHT22;10147;16.402;102.848;2022-11-20T10:27:07;30.40;99.90
19972;DHT22;10147;16.402;102.848;2022-11-20T10:29:45;30.30;99.90
19972;DHT22;10147;16.402;102.848;2022-11-20T10:32:20;30.40;99.90
19972;DHT22;10147;16.402;102.848;2022-11-20T10:35:07;30.30;99.90
19972;DHT22;10147;16.402;102.848;2022-11-20T10:37:47;30.40;99.90
19972;DHT22;10147;16.402;102.848;2022-11-20T10:40:40;30.30;99.90
19972;DHT22;10147;16.402;102.848;2022-11-20T10:46:21;30.30;99.90
19972;DHT22;10147;16.402;102.848;2022-11-20T10:48:52;30.20;99.90
19972;DHT22;10147;16.402;102.848;2022-11-20T10:54:57;30.10;99.90
19972;DHT22;10147;16.402;102.848;2022-11-20T10:57:53;30.10;99.90
19972;DHT22;10147;16.402;102.848;2022-11-20T11:00:25;30.00;99.90
19972;DHT22;10147;16.402;102.848;2022-11-20T11:02:55;30.10;99.90
19972;DHT22;10147;16.402;102.848;2022-11-20T11:05:50;30.00;99.90
19972;DHT22;10147;16.402;102.848;2022-11-20T11:08:22;30.10;99.90
19972;DHT22;10147;16.402;102.848;2022-11-20T11:14:11;30.00;99.90
19972;DHT22;10147;16.402;102.848;2022-11-20T11:16:53;29.80;99.90
19972;DHT22;10147;16.402;102.848;2022-11-20T11:19:24;29.80;99.90
19972;DHT22;10147;16.402;102.848;2022-11-20T11:21:55;29.70;99.90
19972;DHT22;10147;16.402;102.848;2022-11-20T11:24:28;29.70;99.90
19972;DHT22;10147;16.402;102.848;2022-11-20T11:27:14;29.70;99.90
19972;DHT22;10147;16.402;102.848;2022-11-20T11:29:47;29.60;99.90
19972;DHT22;10147;16.402;102.848;2022-11-20T11:32:20;29.70;99.90
19972;DHT22;10147;16.402;102.848;2022-11-20T11:38:06;29.60;99.90
19972;DHT22;10147;16.402;102.848;2022-11-20T11:40:41;29.40;99.90
19972;DHT22;10147;16.402;102.848;2022-11-20T11:43:24;29.40;99.90
19972;DHT22;10147;16.402;102.848;2022-11-20T11:46:34;29.40;99.90
19972;DHT22;10147;16.402;102.848;2022-11-20T11:49:21;29.40;99.90
19972;DHT22;10147;16.402;102.848;2022-11-20T11:52:18;29.40;99.90
19972;DHT22;10147;16.402;102.848;2022-11-20T11:55:02;29.40;99.90
19972;DHT22;10147;16.402;102.848;2022-11-20T11:57:59;29.40;99.90
19972;DHT22;10147;16.402;102.848;2022-11-20T12:00:33;29.30;99.90
19972;DHT22;10147;16.402;102.848;2022-11-20T12:03:27;29.20;99.90
19972;DHT22;10147;16.402;102.848;2022-11-20T12:06:01;29.10;99.90
19972;DHT22;10147;16.402;102.848;2022-11-20T12:12:06;29.10;99.90
19972;DHT22;10147;16.402;102.848;2022-11-20T12:14:41;29.10;99.90
19972;DHT22;10147;16.402;102.848;2022-11-20T12:17:19;29.10;99.90
19972;DHT22;10147;16.402;102.848;2022-11-20T12:19:50;29.10;99.90
19972;DHT22;10147;16.402;102.848;2022-11-20T12:25:35;29.00;99.90
19972;DHT22;10147;16.402;102.848;2022-11-20T12:34:30;28.80;99.90
19972;DHT22;10147;16.402;102.848;2022-11-20T12:43:23;28.80;99.90
19972;DHT22;10147;16.402;102.848;2022-11-20T12:46:45;28.80;99.90
19972;DHT22;10147;16.402;102.848;2022-11-20T13:01:55;28.20;99.90
19972;DHT22;10147;16.402;102.848;2022-11-20T13:07:36;28.10;99.90
19972;DHT22;10147;16.402;102.848;2022-11-20T13:10:31;28.20;99.90
19972;DHT22;10147;16.402;102.848;2022-11-20T13:13:30;28.30;99.90
19972;DHT22;10147;16.402;102.848;2022-11-20T13:16:09;28.40;99.90
19972;DHT22;10147;16.402;102.848;2022-11-20T13:18:42;28.50;99.90
19972;DHT22;10147;16.402;102.848;2022-11-20T13:21:22;28.50;99.90
19972;DHT22;10147;16.402;102.848;2022-11-20T13:24:05;28.50;99.90
19972;DHT22;10147;16.402;102.848;2022-11-20T13:26:37;28.40;99.90
19972;DHT22;10147;16.402;102.848;2022-11-20T13:29:18;28.20;99.90
19972;DHT22;10147;16.402;102.848;2022-11-20T13:31:49;28.10;99.90
19972;DHT22;10147;16.402;102.848;2022-11-20T13:34:25;28.10;99.90
19972;DHT22;10147;16.402;102.848;2022-11-20T13:36:58;28.40;99.90
19972;DHT22;10147;16.402;102.848;2022-11-20T13:39:33;28.40;99.90
19972;DHT22;10147;16.402;102.848;2022-11-20T13:42:25;28.30;99.90
19972;DHT22;10147;16.402;102.848;2022-11-20T13:45:08;28.30;99.90
19972;DHT22;10147;16.402;102.848;2022-11-20T13:47:51;28.30;99.90
19972;DHT22;10147;16.402;102.848;2022-11-20T13:57:08;28.10;99.90
19972;DHT22;10147;16.402;102.848;2022-11-20T14:00:20;28.00;99.90
19972;DHT22;10147;16.402;102.848;2022-11-20T14:06:29;28.20;99.90
19972;DHT22;10147;16.402;102.848;2022-11-20T14:09:00;28.00;99.90
19972;DHT22;10147;16.402;102.848;2022-11-20T14:11:31;27.90;99.90
19972;DHT22;10147;16.402;102.848;2022-11-20T14:14:10;27.80;99.90
19972;DHT22;10147;16.402;102.848;2022-11-20T14:16:43;27.80;99.90
19972;DHT22;10147;16.402;102.848;2022-11-20T14:19:33;28.00;99.90
19972;DHT22;10147;16.402;102.848;2022-11-20T14:25:20;28.20;99.90
19972;DHT22;10147;16.402;102.848;2022-11-20T14:28:01;28.30;99.90
19972;DHT22;10147;16.402;102.848;2022-11-20T14:30:52;28.20;99.90
19972;DHT22;10147;16.402;102.848;2022-11-20T14:33:26;28.20;99.90
19972;DHT22;10147;16.402;102.848;2022-11-20T14:35:58;28.10;99.90
19972;DHT22;10147;16.402;102.848;2022-11-20T14:38:31;28.20;99.90
19972;DHT22;10147;16.402;102.848;2022-11-20T14:41:18;28.10;99.90
19972;DHT22;10147;16.402;102.848;2022-11-20T14:43:58;28.20;99.90
19972;DHT22;10147;16.402;102.848;2022-11-20T14:46:31;28.20;99.90
19972;DHT22;10147;16.402;102.848;2022-11-20T14:49:03;28.10;99.90
19972;DHT22;10147;16.402;102.848;2022-11-20T14:51:38;28.00;99.90
19972;DHT22;10147;16.402;102.848;2022-11-20T14:54:17;27.90;99.90
19972;DHT22;10147;16.402;102.848;2022-11-20T14:56:56;27.90;99.90
19972;DHT22;10147;16.402;102.848;2022-11-20T14:59:30;27.90;99.90
19972;DHT22;10147;16.402;102.848;2022-11-20T15:02:11;27.80;99.90
19972;DHT22;10147;16.402;102.848;2022-11-20T15:04:50;27.80;99.90
19972;DHT22;10147;16.402;102.848;2022-11-20T15:07:26;27.90;99.90
19972;DHT22;10147;16.402;102.848;2022-11-20T15:10:04;27.80;99.90
19972;DHT22;10147;16.402;102.848;2022-11-20T15:12:59;27.80;99.90
19972;DHT22;10147;16.402;102.848;2022-11-20T15:18:40;27.90;99.90
19972;DHT22;10147;16.402;102.848;2022-11-20T15:21:17;27.80;99.90
19972;DHT22;10147;16.402;102.848;2022-11-20T15:23:48;27.80;99.90
19972;DHT22;10147;16.402;102.848;2022-11-20T15:26:23;27.80;99.90
19972;DHT22;10147;16.402;102.848;2022-11-20T15:28:55;27.70;99.90
19972;DHT22;10147;16.402;102.848;2022-11-20T15:31:26;27.80;99.90
19972;DHT22;10147;16.402;102.848;2022-11-20T15:33:57;27.70;99.90
19972;DHT22;10147;16.402;102.848;2022-11-20T15:36:28;27.70;99.90
19972;DHT22;10147;16.402;102.848;2022-11-20T15:38:58;27.70;99.90
19972;DHT22;10147;16.402;102.848;2022-11-20T15:41:28;27.70;99.90
19972;DHT22;10147;16.402;102.848;2022-11-20T15:43:59;27.60;99.90
19972;DHT22;10147;16.402;102.848;2022-11-20T15:46:31;27.70;99.90
19972;DHT22;10147;16.402;102.848;2022-11-20T15:49:14;27.80;99.90
19972;DHT22;10147;16.402;102.848;2022-11-20T15:51:47;27.80;99.90
19972;DHT22;10147;16.402;102.848;2022-11-20T15:54:20;27.70;99.90
19972;DHT22;10147;16.402;102.848;2022-11-20T15:56:51;27.80;99.90
19972;DHT22;10147;16.402;102.848;2022-11-20T15:59:23;27.70;99.90
19972;DHT22;10147;16.402;102.848;2022-11-20T16:01:53;27.60;99.90
19972;DHT22;10147;16.402;102.848;2022-11-20T16:04:24;27.50;99.90
19972;DHT22;10147;16.402;102.848;2022-11-20T16:06:55;27.60;99.90
19972;DHT22;10147;16.402;102.848;2022-11-20T16:09:27;27.50;99.90
19972;DHT22;10147;16.402;102.848;2022-11-20T16:11:57;27.50;99.90
19972;DHT22;10147;16.402;102.848;2022-11-20T16:14:29;27.40;99.90
19972;DHT22;10147;16.402;102.848;2022-11-20T16:17:19;27.30;99.90
19972;DHT22;10147;16.402;102.848;2022-11-20T16:20:11;27.30;99.90
19972;DHT22;10147;16.402;102.848;2022-11-20T16:22:41;27.30;99.90
19972;DHT22;10147;16.402;102.848;2022-11-20T16:25:12;27.30;99.90
19972;DHT22;10147;16.402;102.848;2022-11-20T16:27:42;27.30;99.90
19972;DHT22;10147;16.402;102.848;2022-11-20T16:30:13;27.30;99.90
19972;DHT22;10147;16.402;102.848;2022-11-20T16:32:43;27.30;99.90
19972;DHT22;10147;16.402;102.848;2022-11-20T16:35:14;27.20;99.90
19972;DHT22;10147;16.402;102.848;2022-11-20T16:37:45;27.10;99.90
19972;DHT22;10147;16.402;102.848;2022-11-20T16:40:16;27.10;99.90
19972;DHT22;10147;16.402;102.848;2022-11-20T16:42:47;27.10;99.90
19972;DHT22;10147;16.402;102.848;2022-11-20T16:45:18;27.20;99.90
19972;DHT22;10147;16.402;102.848;2022-11-20T16:47:55;27.10;99.90
19972;DHT22;10147;16.402;102.848;2022-11-20T16:50:27;26.90;99.90
19972;DHT22;10147;16.402;102.848;2022-11-20T16:52:58;26.90;99.90
19972;DHT22;10147;16.402;102.848;2022-11-20T16:55:28;27.00;99.90
19972;DHT22;10147;16.402;102.848;2022-11-20T16:57:59;26.90;99.90
19972;DHT22;10147;16.402;102.848;2022-11-20T17:00:29;26.90;99.90
19972;DHT22;10147;16.402;102.848;2022-11-20T17:03:00;27.00;99.90
19972;DHT22;10147;16.402;102.848;2022-11-20T17:05:31;27.10;99.90
19972;DHT22;10147;16.402;102.848;2022-11-20T17:08:01;27.20;99.90
19972;DHT22;10147;16.402;102.848;2022-11-20T17:10:32;27.20;99.90
19972;DHT22;10147;16.402;102.848;2022-11-20T17:13:03;27.20;99.90
19972;DHT22;10147;16.402;102.848;2022-11-20T17:15:34;27.30;99.90